LMO weather

Vance Brand Airport
Longmont, Colorado, United States

Public forecast

Using degrees Fahrenheit for public forecast. Weather courtesy of forecast.io.

Current aviation weather report (METAR) for Vance Brand Airport

Retrieved 2020/06/06 12:55 UTC (11 minutes ago):

KLMO 061255Z AUTO 07004KT 10SM CLR 21/09 A2991 RMK AO2 T02060085

Closest aviation forecast (TAF) to Vance Brand Airport

Closest forecast is Rocky Mountain Metropolitan Airport, 15.4 nm (28.6 km) S. Retrieved 2020/06/06 12:22 UTC (44 minutes ago):

TAF KBJC 061120Z 0612/0712 21007KT P6SM FEW100 SCT180 FM061600 18015G30KT P6SM FEW100 SCT200 FM062000 22025G45KT P6SM SCT090 BKN150 TEMPO 0620/0624 4SM -TSRA BKN090CB FM070300 20012KT P6SM FEW100